Time;durP1;ratioP1;P1;durP2;ratioP2;P2;SDS_P1;SDS_P2;PMS_P1;PMS_P2;Temp;Humidity;BMP_temperature;BMP_pressure;BME280_temperature;BME280_humidity;BME280_pressure;Samples;Min_cycle;Max_cycle;Signal;HPM_P1;HPM_P2
2023/01/03 00:03:59;;;;;;;12.55;7.57;;;;;;;18.21;47.26;101164.34;20921678;28;20048;-81
2023/01/03 00:14:00;;;;;;;12.77;7.82;;;;;;;18.20;47.55;101160.03;20915558;28;20053;-83
2023/01/03 00:24:01;;;;;;;11.48;7.10;;;;;;;18.19;47.58;101176.69;20914124;28;20056;-81
2023/01/03 00:34:01;;;;;;;10.98;6.90;;;;;;;18.20;47.26;101194.13;20915545;28;20049;-80
2023/01/03 00:44:02;;;;;;;11.18;6.93;;;;;;;18.19;47.34;101189.78;20899293;28;20089;-80
2023/01/03 00:54:04;;;;;;;12.57;7.45;;;;;;;18.20;47.33;101203.72;20908884;28;20052;-81
2023/01/03 01:04:16;;;;;;;10.68;6.70;;;;;;;18.20;47.26;101211.59;20909960;28;20071;-81
2023/01/03 01:14:19;;;;;;;10.27;6.95;;;;;;;18.20;47.15;101207.22;20902930;28;20044;-81
2023/01/03 01:24:20;;;;;;;11.32;6.82;;;;;;;18.20;47.27;101211.59;20905021;28;20048;-80
2023/01/03 01:34:21;;;;;;;11.38;7.15;;;;;;;18.20;47.33;101206.34;20900618;28;20045;-81
2023/01/03 01:44:52;;;;;;;10.68;6.93;;;;;;;18.21;47.34;101210.69;20892614;28;20553;-80
2023/01/03 01:54:53;;;;;;;10.60;6.70;;;;;;;18.20;47.30;101201.13;20904405;28;20045;-80
2023/01/03 02:04:56;;;;;;;9.57;6.65;;;;;;;18.20;47.45;101219.47;20901984;28;20087;-81
2023/01/03 02:15:15;;;;;;;9.40;6.50;;;;;;;18.20;47.33;101211.59;20890190;28;20049;-81
2023/01/03 02:25:28;;;;;;;10.18;6.97;;;;;;;18.19;47.33;101217.78;20897014;28;20075;-81
2023/01/03 02:35:35;;;;;;;9.30;6.43;;;;;;;18.19;47.37;101215.16;20893613;28;20411;-81
2023/01/03 02:45:59;;;;;;;8.70;5.97;;;;;;;18.19;47.40;101225.66;20900240;28;20404;-81
2023/01/03 02:56:06;;;;;;;9.75;6.07;;;;;;;18.18;47.41;101227.41;20884706;28;20044;-81
2023/01/03 03:06:19;;;;;;;8.70;6.43;;;;;;;18.19;47.37;101225.66;20906942;28;20048;-81
2023/01/03 03:26:43;;;;;;;8.82;6.40;;;;;;;18.20;47.33;101224.72;20906893;28;20565;-81
2023/01/03 03:36:49;;;;;;;10.05;6.20;;;;;;;18.18;47.25;101231.81;20902068;28;20060;-81
2023/01/03 03:46:55;;;;;;;9.60;6.10;;;;;;;18.18;47.14;101237.06;20882473;28;20068;-81
2023/01/03 03:57:05;;;;;;;7.72;5.70;;;;;;;18.18;47.41;101230.03;20885871;28;20128;-81
2023/01/03 04:07:05;;;;;;;9.05;5.82;;;;;;;18.19;47.38;101244.00;20911635;28;20052;-81
2023/01/03 04:17:06;;;;;;;7.40;5.30;;;;;;;18.18;47.41;101250.16;20919659;28;20068;-80
2023/01/03 04:27:07;;;;;;;8.48;5.65;;;;;;;18.18;47.37;101243.16;20906037;28;20040;-80
2023/01/03 04:37:08;;;;;;;7.55;5.57;;;;;;;18.19;47.26;101249.25;20905410;28;20068;-82
2023/01/03 04:47:08;;;;;;;7.72;5.22;;;;;;;18.17;47.49;101249.31;20915025;28;20045;-81
2023/01/03 04:57:30;;;;;;;7.10;5.10;;;;;;;18.18;47.31;101258.03;20906374;28;20124;-82
2023/01/03 05:07:31;;;;;;;6.95;4.80;;;;;;;18.18;46.96;101261.50;20900062;28;20049;-81
2023/01/03 05:17:32;;;;;;;7.38;5.03;;;;;;;18.16;47.35;101259.88;20906962;28;20101;-81
2023/01/03 05:27:32;;;;;;;7.78;5.07;;;;;;;18.16;47.32;101283.47;20897488;28;20128;-82
2023/01/03 05:37:34;;;;;;;6.78;5.03;;;;;;;18.15;47.31;101300.13;20877055;28;20167;-80
2023/01/03 05:47:34;;;;;;;7.32;4.82;;;;;;;18.14;47.21;101312.38;20906114;28;20105;-81
2023/01/03 05:57:35;;;;;;;5.78;4.40;;;;;;;18.13;47.28;101315.94;20898313;28;20075;-80
2023/01/03 06:07:36;;;;;;;5.90;4.10;;;;;;;18.14;47.19;101312.38;20905548;28;20076;-81
2023/01/03 06:17:57;;;;;;;5.25;4.10;;;;;;;18.13;47.14;101315.09;20899504;28;20044;-80
2023/01/03 06:27:58;;;;;;;5.95;4.38;;;;;;;18.11;47.38;101315.16;20890557;28;20049;-81
2023/01/03 06:37:58;;;;;;;4.97;3.95;;;;;;;18.11;47.17;101325.63;20894169;28;20073;-81
2023/01/03 06:58:23;;;;;;;5.10;4.03;;;;;;;18.12;47.05;101350.91;20902068;28;20045;-81
2023/01/03 07:08:23;;;;;;;5.75;4.32;;;;;;;18.14;47.07;101361.31;20896596;28;20569;-81
2023/01/03 07:18:25;;;;;;;5.13;3.83;;;;;;;18.14;47.04;101366.56;20880445;28;20029;-81
2023/01/03 07:28:31;;;;;;;4.93;3.85;;;;;;;18.13;47.32;101376.22;20906302;28;20045;-81
2023/01/03 07:38:32;;;;;;;5.90;4.45;;;;;;;18.13;47.16;101378.84;20914460;28;20041;-81
2023/01/03 07:48:33;;;;;;;4.97;3.57;;;;;;;18.15;47.10;101382.25;20916241;28;20044;-81
2023/01/03 07:58:34;;;;;;;4.55;3.42;;;;;;;18.15;47.11;101397.09;20894579;28;20282;-81
2023/01/03 08:08:35;;;;;;;5.05;3.60;;;;;;;18.17;47.25;101405.75;20893542;28;20037;-81
2023/01/03 08:18:38;;;;;;;4.50;3.40;;;;;;;18.18;47.17;101412.69;20902361;28;20041;-81
2023/01/03 08:28:40;;;;;;;4.07;3.30;;;;;;;18.17;47.17;101429.34;20882495;28;20120;-80
2023/01/03 08:38:46;;;;;;;4.80;3.80;;;;;;;18.18;47.12;101434.50;20898179;28;20029;-82
2023/01/03 08:48:47;;;;;;;3.58;3.10;;;;;;;18.19;46.98;101423.09;20882034;28;20385;-81
2023/01/03 08:58:47;;;;;;;4.47;3.40;;;;;;;18.19;47.16;101438.84;20898203;28;20033;-83
2023/01/03 09:08:48;;;;;;;3.88;3.13;;;;;;;18.22;47.06;101443.06;20880953;28;20045;-80
2023/01/03 09:18:48;;;;;;;3.75;3.05;;;;;;;18.22;47.03;101437.81;20896988;28;20047;-82
2023/01/03 09:28:49;;;;;;;4.30;3.40;;;;;;;18.24;46.99;101449.94;20899186;28;20045;-81
2023/01/03 09:38:49;;;;;;;4.53;3.28;;;;;;;18.26;46.98;101446.41;20897873;28;20037;-81
2023/01/03 09:48:54;;;;;;;4.50;3.42;;;;;;;18.27;46.94;101446.31;20894533;28;20270;-81
2023/01/03 10:09:23;;;;;;;4.68;3.30;;;;;;;18.31;46.95;101434.78;20893371;28;20052;-81
2023/01/03 10:19:51;;;;;;;4.10;3.13;;;;;;;18.35;46.86;101440.72;20878980;28;20049;-81
2023/01/03 10:29:56;;;;;;;3.25;2.90;;;;;;;18.38;46.95;101443.19;20876404;28;20044;-81
2023/01/03 10:40:04;;;;;;;3.97;3.35;;;;;;;18.44;46.89;101428.94;20899257;28;20131;-81
2023/01/03 10:50:05;;;;;;;4.55;3.42;;;;;;;18.48;46.75;101419.97;20871973;28;20041;-81
2023/01/03 11:00:29;;;;;;;5.53;3.70;;;;;;;18.50;46.88;101413.72;20888820;28;20130;-81
2023/01/03 11:10:37;;;;;;;6.07;4.25;;;;;;;18.56;46.75;101412.56;20911176;28;20120;-81
2023/01/03 11:21:15;;;;;;;4.85;4.03;;;;;;;18.59;46.69;101395.84;20916895;28;20040;-80
2023/01/03 11:31:33;;;;;;;6.15;4.60;;;;;;;18.64;46.49;101391.19;20909873;28;20064;-81
2023/01/03 11:41:37;;;;;;;5.65;4.30;;;;;;;18.69;46.54;101407.59;20918775;28;20472;-81
2023/01/03 11:51:47;;;;;;;5.38;4.43;;;;;;;18.70;46.56;101401.38;20880193;28;20045;-81
2023/01/03 12:02:05;;;;;;;5.28;4.22;;;;;;;18.73;46.44;101396.81;20910511;28;20041;-80
2023/01/03 12:12:29;;;;;;;5.32;4.20;;;;;;;18.76;46.44;101390.59;20911340;28;20111;-81
2023/01/03 12:22:37;;;;;;;5.80;4.43;;;;;;;18.75;46.46;101391.53;20869452;28;20056;-81
2023/01/03 12:32:54;;;;;;;5.22;4.30;;;;;;;18.73;46.41;101378.47;20892319;28;20045;-80
2023/01/03 12:43:04;;;;;;;5.72;4.60;;;;;;;18.71;46.47;101380.34;20909173;28;20041;-82
2023/01/03 12:54:01;;;;;;;6.03;4.75;;;;;;;18.70;46.52;101377.75;20904187;28;20060;-81
2023/01/03 13:04:10;;;;;;;5.30;4.22;;;;;;;18.69;46.52;101384.81;20702851;28;20052;-81
2023/01/03 13:14:25;;;;;;;6.75;4.53;;;;;;;18.66;46.55;101376.25;20894820;28;20797;-81
2023/01/03 13:24:46;;;;;;;4.43;3.78;;;;;;;18.64;46.57;101385.94;20881960;28;20079;-81
2023/01/03 13:34:53;;;;;;;5.47;3.90;;;;;;;18.63;46.58;101392.97;20906448;28;20036;-81
2023/01/03 13:45:16;;;;;;;5.10;4.10;;;;;;;18.62;46.65;101403.56;20915956;28;20056;-80
2023/01/03 13:55:47;;;;;;;5.33;3.83;;;;;;;18.61;46.64;101389.59;20864678;28;20071;-81
2023/01/03 14:05:54;;;;;;;5.88;4.00;;;;;;;18.61;46.77;101396.63;20908125;28;20052;-83
2023/01/03 14:16:11;;;;;;;4.55;3.80;;;;;;;18.60;46.79;101401.00;20901336;28;20164;-80
2023/01/03 14:26:17;;;;;;;5.43;3.97;;;;;;;18.59;46.68;101414.19;20905486;28;20047;-80
2023/01/03 14:36:18;;;;;;;4.82;4.03;;;;;;;18.57;46.75;101427.41;20898756;28;20047;-81
2023/01/03 14:46:18;;;;;;;5.47;4.00;;;;;;;18.55;46.76;101422.25;20906795;28;20037;-80
2023/01/03 14:56:23;;;;;;;4.95;3.72;;;;;;;18.56;46.85;101428.31;20889546;28;20052;-80
2023/01/03 15:06:29;;;;;;;4.88;3.75;;;;;;;18.55;46.72;101435.34;20886181;28;20041;-79
2023/01/03 15:16:39;;;;;;;4.45;3.55;;;;;;;18.53;46.78;101436.34;20901747;28;20995;-80
2023/01/03 15:26:41;;;;;;;5.10;3.83;;;;;;;18.52;46.90;101456.47;20900011;28;20056;-80
2023/01/03 15:36:46;;;;;;;18.05;8.02;;;;;;;17.65;45.20;101462.28;20821112;28;20041;-81
2023/01/03 15:46:49;;;;;;;10.45;7.20;;;;;;;18.19;46.25;101466.84;20789877;28;20135;-80
2023/01/03 15:57:04;;;;;;;9.77;6.43;;;;;;;18.35;46.71;101470.41;20817698;28;20138;-81
2023/01/03 16:07:04;;;;;;;14.70;7.18;;;;;;;18.52;47.53;101495.81;20818986;28;20117;-79
2023/01/03 16:17:06;;;;;;;12.30;6.88;;;;;;;18.66;47.46;101500.41;20819617;28;20045;-82
2023/01/03 16:27:19;;;;;;;14.18;8.13;;;;;;;18.79;48.11;101500.63;20825257;28;20052;-80
2023/01/03 16:37:19;;;;;;;17.77;9.38;;;;;;;18.89;48.68;101508.91;20800438;28;20510;-78
2023/01/03 16:47:23;;;;;;;16.27;10.05;;;;;;;19.01;49.15;101517.97;20838070;28;20065;-78
2023/01/03 16:57:23;;;;;;;;;;;;;;;19.14;49.23;101526.94;20835104;28;20037;-77
2023/01/03 17:07:24;;;;;;;17.60;9.98;;;;;;;19.28;50.41;101531.47;20825487;28;19987;-79
2023/01/03 17:17:24;;;;;;;17.35;8.68;;;;;;;19.47;51.61;101546.28;20848716;28;20029;-78
2023/01/03 17:27:25;;;;;;;19.48;9.57;;;;;;;19.59;51.58;101545.66;20834504;28;20143;-78
2023/01/03 17:37:26;;;;;;;16.67;9.38;;;;;;;19.67;51.61;101555.75;20846953;28;20451;-79
2023/01/03 17:58:00;;;;;;;17.15;9.75;;;;;;;19.82;51.90;101576.00;20874903;28;20053;-78
2023/01/03 18:08:02;;;;;;;12.77;8.35;;;;;;;19.88;52.19;101582.72;20870975;28;20582;-79
2023/01/03 18:18:02;;;;;;;12.93;8.77;;;;;;;19.94;52.27;101581.56;20854765;28;20041;-78
2023/01/03 18:28:03;;;;;;;41.65;9.50;;;;;;;19.99;52.25;101585.66;20819778;28;20052;-79
2023/01/03 18:38:04;;;;;;;16.65;7.95;;;;;;;20.02;52.29;101594.28;20799496;28;20033;-76
2023/01/03 18:48:05;;;;;;;14.77;8.20;;;;;;;20.00;51.65;101597.00;20851522;28;20049;-77
2023/01/03 18:58:28;;;;;;;15.38;8.82;;;;;;;19.97;51.41;101600.66;20854458;28;21664;-77
2023/01/03 19:08:31;;;;;;;13.83;8.60;;;;;;;19.92;51.14;101594.78;20844728;28;20128;-77
2023/01/03 19:18:32;;;;;;;14.27;7.82;;;;;;;19.89;50.88;101599.34;20849449;28;20465;-77
2023/01/03 19:28:32;;;;;;;14.13;7.93;;;;;;;19.83;50.66;101601.38;20860869;28;20048;-76
2023/01/03 19:38:33;;;;;;;13.57;7.93;;;;;;;19.80;50.87;101600.66;20859190;28;20044;-76
2023/01/03 19:48:34;;;;;;;10.93;7.20;;;;;;;19.74;50.59;101601.81;20861256;28;20049;-76
2023/01/03 19:58:39;;;;;;;9.77;6.93;;;;;;;19.71;50.59;101609.84;20866329;28;20526;-78
2023/01/03 20:08:39;;;;;;;10.90;7.57;;;;;;;19.70;50.54;101615.19;20878347;28;20120;-76
2023/01/03 20:18:42;;;;;;;11.43;7.57;;;;;;;19.71;50.25;101616.91;20840836;28;20044;-78
2023/01/03 20:28:43;;;;;;;10.53;6.30;;;;;;;19.78;50.69;101627.00;20859461;28;20085;-76
2023/01/03 20:38:47;;;;;;;10.27;6.70;;;;;;;19.82;50.76;101623.31;20874375;28;20041;-76
2023/01/03 20:48:55;;;;;;;;;;;;;;;19.87;51.00;101619.59;20845758;28;20120;-76
2023/01/03 20:58:55;;;;;;;10.32;6.63;;;;;;;19.90;50.76;101608.94;20830045;28;1228180;-76
2023/01/03 21:08:58;;;;;;;9.98;6.20;;;;;;;19.92;50.99;101607.94;20840800;28;20056;-77
2023/01/03 21:19:10;;;;;;;10.50;6.30;;;;;;;19.95;50.95;101607.75;20853403;28;20578;-77
2023/01/03 21:29:11;;;;;;;8.97;5.90;;;;;;;19.96;50.95;101608.63;20844444;28;20515;-77
2023/01/03 21:39:12;;;;;;;9.18;5.55;;;;;;;19.96;51.43;101619.97;20853585;28;20377;-76
2023/01/03 21:49:12;;;;;;;9.82;5.45;;;;;;;19.98;50.88;101622.50;20854629;28;20072;-77
2023/01/03 21:59:14;;;;;;;8.45;5.65;;;;;;;19.99;51.26;101632.97;20871361;28;20047;-75
2023/01/03 22:19:34;;;;;;;6.20;4.68;;;;;;;19.99;51.27;101630.34;20873927;28;20045;-78
2023/01/03 22:29:34;;;;;;;6.68;4.90;;;;;;;20.00;51.11;101634.66;20868180;28;20051;-78
2023/01/03 22:39:35;;;;;;;6.53;4.70;;;;;;;19.99;51.44;101630.34;20844925;28;20041;-77
2023/01/03 22:49:35;;;;;;;6.53;4.60;;;;;;;20.00;50.71;101633.81;20869240;28;20033;-75
2023/01/03 22:59:36;;;;;;;5.93;4.70;;;;;;;20.01;51.18;101643.41;20859431;28;20060;-76
2023/01/03 23:09:37;;;;;;;6.95;4.40;;;;;;;20.03;50.95;101651.19;20841524;28;20191;-76
2023/01/03 23:19:37;;;;;;;5.85;4.20;;;;;;;20.02;50.75;101647.72;20848054;28;20051;-77
2023/01/03 23:29:38;;;;;;;4.55;3.95;;;;;;;20.00;50.77;101626.75;20859402;28;20049;-77
2023/01/03 23:39:38;;;;;;;4.85;4.20;;;;;;;20.01;50.99;101622.38;20854354;28;20044;-77
2023/01/03 23:49:39;;;;;;;6.20;4.40;;;;;;;20.00;50.63;101632.00;20854211;28;20040;-76
2023/01/03 23:59:40;;;;;;;6.00;4.00;;;;;;;20.02;50.82;101618.81;20846567;28;20052;-77
